• Join FlightAware (Why Join?)
  • Login
  • US Flag 
05:36PM EDT


 

Airport Tracker/Info


-or-


 

Live Flight TrackerFlight Track Log ✈ NKS416 ✈ 16-Mar-2014 ✈ KFLL - KIAG

Flight Track Log - Related Links

Times and Time Zones

All times are in EDT time to prevent confusion due to time zone crossing. See the NKS416 flight status page for this flight to view local times or setup timezone preferences in your user account.

Time Position Orientation Groundspeed Altitude Reporting Facility
EDT Latitude Longitude Course Direction KTS MPH feet Rate Location/Type
10:24PM 26.0750 -80.1367 84° East 155 178 700  Level Miami Center
10:25PM 26.0803 -80.0836 84° East 206 237 2,300 1,440 Climbing Miami Center
10:25PM 26.0869 -80.0722 57° Northeast 238 274 2,400 2,040 Climbing Miami Center
10:26PM 26.0928 -79.9892 86° East 291 335 4,600 2,220 Climbing Miami Center
10:26PM 26.0972 -79.9753 70° East 286 329 4,600 1,980 Level Miami Center
10:27PM 26.1278 -79.9136 61° Northeast 300 345 6,400 2,100 Climbing Miami Center
10:27PM 26.1450 -79.8911 50° Northeast 292 336 6,700 3,180 Climbing Miami Center
10:28PM 26.1736 -79.8247 64° Northeast 302 348 9,900 2,760 Climbing Miami Center
10:28PM 26.1842 -79.8108 50° Northeast 299 344 9,600 1,200 Descending Miami Center
10:29PM 26.2297 -79.7311 57° Northeast 340 391 11,200 1,620 Climbing Miami Center
10:30PM 26.2819 -79.6256 61° Northeast 364 419 12,800 1,800 Climbing Miami Center
10:31PM 26.3486 -79.5253 53° Northeast 386 444 14,900 1,680 Climbing Miami Center
10:37PM 27.0428 -79.1428 25° Northeast 473 544 25,100 1,560 Climbing FlightAware ADS-B (KMCO)
10:38PM 27.1362 -79.0937 25° Northeast 482 555 25,900 1,080 Climbing FlightAware ADS-B (KMCO)
10:39PM 27.1984 -79.0610 25° Northeast 485 558 26,600 1,140 Climbing FlightAware ADS-B (KMCO)
10:39PM 27.2806 -79.0176 25° Northeast 492 566 27,300 1,080 Climbing FlightAware ADS-B (KMCO)
10:40PM 27.3489 -78.9827 23° Northeast 491 565 27,900 1,140 Climbing FlightAware ADS-B (KMCO)
10:40PM 27.4041 -78.9606 17° North 487 560 28,500 1,200 Climbing FlightAware ADS-B (KMCO)
10:41PM 27.4715 -78.9411 12° North 482 555 29,100 1,080 Climbing FlightAware ADS-B (KMCO)
10:41PM 27.5449 -78.9286 North 479 551 29,600 1,200 Climbing FlightAware ADS-B (KMCO)
10:43PM 27.7460 -78.9006 North 474 545 31,600 1,440 Climbing FlightAware ADS-B (KMCO)
10:43PM 27.8179 -78.8905 North 459 528 32,700 1,320 Climbing FlightAware ADS-B (KMCO)
10:44PM 27.9148 -78.8770 North 460 529 33,400 720 Climbing FlightAware ADS-B (KMCO)
10:45PM 27.9836 -78.8674 North 466 536 33,700 720 Climbing FlightAware ADS-B (KMCO)
10:45PM 28.0453 -78.8587 North 465 535 34,200 840 Climbing FlightAware ADS-B (KMCO)
10:46PM 28.1758 -78.8403 North 457 526 35,000 360 Climbing FlightAware ADS-B (KMCO)
10:47PM 28.3003 -78.8226 North 457 526 35,000  Level FlightAware ADS-B (KMCO)
10:48PM 28.4147 -78.8086 North 459 528 35,000 -60 Level Miami Center
10:49PM 28.5422 -78.7919 North 453 521 34,900 -60 Descending Miami Center
10:50PM 28.6656 -78.7728 North 448 516 34,900  Level Miami Center
10:51PM 28.7953 -78.7583 North 448 516 34,900  Level Miami Center
10:52PM 28.9186 -78.7392 North 448 516 34,900  Level Miami Center
10:53PM 29.0442 -78.7200 North 448 516 35,000  Climbing Miami Center
10:54PM 29.1714 -78.7031 North 446 513 35,000  Level Miami Center
10:55PM 29.2947 -78.6836 North 455 524 35,000  Level Miami Center
10:56PM 29.4222 -78.6667 North 455 524 35,000  Level Miami Center
10:57PM 29.5478 -78.6522 North 450 518 35,000 -60 Level Miami Center
10:58PM 29.6647 -78.6278 10° North 442 509 34,900  Descending Miami Center
10:59PM 29.7961 -78.6203 North 450 518 35,000  Climbing Miami Center
11:00PM 29.8664 -78.5961 17° North 443 510 34,900  Descending Jacksonville Center
11:01PM 29.9953 -78.5808 North 450 518 35,000  Climbing Jacksonville Center
11:02PM 30.1111 -78.5517 12° North 440 506 35,000  Level Jacksonville Center
11:03PM 30.2569 -78.5450 North 459 528 35,000  Level Jacksonville Center
11:04PM 30.3900 -78.5269 North 473 544 35,000  Level Jacksonville Center
11:05PM 30.5208 -78.5064 North 472 543 35,000 -60 Level Jacksonville Center
11:06PM 30.6433 -78.4839 North 459 528 34,900 -60 Descending Jacksonville Center
11:07PM 30.7739 -78.4633 North 460 529 34,900  Level Jacksonville Center
11:08PM 30.8975 -78.4092 21° North 464 534 34,900  Level Jacksonville Center
11:09PM 31.0156 -78.3261 31° Northeast 479 551 34,900  Level Jacksonville Center
11:10PM 31.1339 -78.2547 27° Northeast 481 554 35,000  Climbing Jacksonville Center
11:11PM 31.2497 -78.1642 34° Northeast 485 558 34,900  Descending Jacksonville Center
11:12PM 31.3653 -78.0756 33° Northeast 490 564 35,000  Climbing Jacksonville Center
11:13PM 31.4814 -78.0014 29° Northeast 483 556 35,000 -60 Level Jacksonville Center
11:14PM 31.5947 -77.9100 34° Northeast 487 560 34,900  Descending Jacksonville Center
11:15PM 31.7122 -77.8206 33° Northeast 492 566 35,000  Climbing Jacksonville Center
11:16PM 31.8275 -77.7311 33° Northeast 492 566 34,900  Descending Jacksonville Center
11:17PM 31.9411 -77.6467 32° Northeast 490 564 35,000  Climbing Jacksonville Center
11:18PM 32.0403 -77.5258 46° Northeast 466 536 35,000 -60 Level Jacksonville Center
11:19PM 32.1331 -77.4003 49° Northeast 483 556 34,900  Descending Jacksonville Center
11:20PM 32.2553 -77.3339 25° Northeast 469 540 35,000  Climbing Jacksonville Center
11:21PM 32.3864 -77.3258 North 449 517 35,000 -60 Level Jacksonville Center
11:22PM 32.5153 -77.3106 North 454 522 34,900 -60 Descending Jacksonville Center
11:23PM 32.6417 -77.2953 North 454 522 34,900  Level Jacksonville Center
11:24PM 32.7675 -77.3075 355° North 454 522 34,900  Level Jacksonville Center
11:25PM 32.9258 -77.3653 343° North 429 494 35,000  Climbing Washington Center
11:26PM 33.0400 -77.4072 343° North 429 494 35,000 -60 Level Washington Center
11:27PM 33.1583 -77.4469 344° North 429 494 34,900 -60 Descending Washington Center
11:28PM 33.2764 -77.4894 343° North 434 499 34,900  Level Washington Center
11:29PM 33.3967 -77.5317 344° North 440 506 35,000  Climbing Washington Center
11:30PM 33.5172 -77.5719 344° North 445 512 35,000  Level Washington Center
11:31PM 33.6353 -77.6169 342° North 445 512 35,000 -60 Level Washington Center
11:32PM 33.7644 -77.6303 355° North 445 512 34,900 -60 Descending Washington Center
11:33PM 33.8958 -77.6333 359° North 458 527 34,900  Level Washington Center
11:34PM 34.0292 -77.6417 357° North 468 539 34,900  Level Washington Center
11:35PM 34.1750 -77.6528 356° North 474 545 34,900  Level Washington Center
11:36PM 34.3019 -77.6711 353° North 474 545 35,000  Climbing Washington Center
11:37PM 34.4353 -77.6844 355° North 474 545 35,000  Level Washington Center
11:38PM 34.5664 -77.7006 354° North 474 545 35,000  Level Washington Center
11:39PM 34.6975 -77.7164 354° North 474 545 35,000  Level Washington Center
11:43PM 35.2381 -77.7750 355° North 465 535 35,000  Level FlightAware ADS-B
11:46PM 35.5775 -77.8146 353° North 470 541 35,000  Level FlightAware ADS-B
11:47PM 35.7325 -77.8361 353° North 463 533 35,000  Level Washington Center
11:48PM 35.8633 -77.8553 353° North 463 533 35,000  Level Washington Center
11:49PM 35.9944 -77.8742 353° North 463 533 35,000  Level Washington Center
11:50PM 36.1319 -77.8911 354° North 468 539 35,000  Level Washington Center
11:51PM 36.2608 -77.9078 354° North 473 544 35,000  Level Washington Center
11:52PM 36.3942 -77.9272 353° North 473 544 35,000  Level Washington Center
11:53PM 36.5086 -77.9436 353° North 473 544 35,000  Level Washington Center
11:54PM 36.6394 -77.9656 352° North 473 544 35,000  Level Washington Center
11:55PM 36.7728 -77.9825 354° North 473 544 35,000  Level Washington Center
11:56PM 36.9058 -78.0022 353° North 478 550 35,000  Level Washington Center
12:00AM 37.4429 -78.0762 353° North 481 554 35,000  Level FlightAware ADS-B (KWWD)
12:01AM 37.5694 -78.0967 353° North 478 550 35,000  Level Washington Center
12:02AM 37.7047 -78.1142 354° North 478 550 35,000  Level Washington Center
12:03AM 37.8378 -78.1319 354° North 478 550 35,000  Level Washington Center
12:04AM 37.9708 -78.1522 353° North 478 550 35,000  Level Washington Center
12:05AM 38.1142 -78.1756 353° North 478 550 35,000  Level Washington Center
12:06AM 38.2514 -78.1961 353° North 483 556 35,000  Level Washington Center
12:07AM 38.3822 -78.2167 353° North 483 556 35,000  Level Washington Center
12:08AM 38.5175 -78.2372 353° North 478 550 35,000  Level Washington Center
12:09AM 38.6506 -78.2553 354° North 483 556 35,000  Level Washington Center
12:10AM 38.7833 -78.2733 354° North 483 556 35,000  Level Washington Center
12:16AM 39.3323 -78.3544 353° North 470 541 35,000  Level FlightAware ADS-B (KAPG)
12:17AM 39.6519 -78.4019 353° North 475 547 35,000  Level Cleveland Center
12:18AM 39.7997 -78.4272 353° North 471 542 35,000  Level Cleveland Center
12:19AM 39.9292 -78.4458 354° North 471 542 35,000  Level Cleveland Center
12:20AM 40.0558 -78.4653 353° North 466 536 35,000  Level Cleveland Center
12:21AM 40.1825 -78.4847 353° North 463 533 35,000  Level Cleveland Center
12:22AM 40.3056 -78.5050 353° North 453 521 35,000  Level Cleveland Center
12:23AM 40.4300 -78.5236 354° North 451 519 35,000 -120 Level Cleveland Center
12:28AM 41.1048 -78.6296 354° North 472 543 34,600 -180 Descending FlightAware ADS-B (CYYZ)
12:29AM 41.1799 -78.6417 354° North 471 542 34,100 -1,380 Descending FlightAware ADS-B (CYYZ)
12:29AM 41.2444 -78.6519 353° North 471 542 33,300 -2,100 Descending FlightAware ADS-B (CYYZ)
12:30AM 41.3082 -78.6622 354° North 468 539 32,000 -2,280 Descending FlightAware ADS-B (CYYZ)
12:30AM 41.3741 -78.6728 354° North 460 529 31,000 -1,980 Descending FlightAware ADS-B (CYYZ)
12:31AM 41.4360 -78.6826 353° North 456 525 30,000 -2,160 Descending FlightAware ADS-B (CYYZ)
12:31AM 41.4991 -78.6928 354° North 451 519 28,900 -2,100 Descending FlightAware ADS-B (CYYZ)
12:32AM 41.5610 -78.7026 354° North 446 513 27,900 -1,740 Descending FlightAware ADS-B (CYYZ)
12:32AM 41.6041 -78.7096 353° North 441 507 27,200 -2,160 Descending FlightAware ADS-B (CYYZ)
12:33AM 41.7482 -78.7329 353° North 432 497 24,600 -2,400 Descending FlightAware ADS-B (CYYZ)
12:34AM 41.8142 -78.7438 353° North 426 490 23,300 -2,160 Descending FlightAware ADS-B (CYYZ)
12:34AM 41.8775 -78.7540 353° North 416 479 22,300 -2,040 Descending FlightAware ADS-B (CYYZ)
12:35AM 41.9627 -78.7681 353° North 408 470 20,700 -1,920 Descending FlightAware ADS-B (CYYZ)
12:36AM 42.0096 -78.7758 353° North 396 456 19,900 -1,740 Descending FlightAware ADS-B (CYYZ)
12:36AM 42.0601 -78.7841 353° North 382 440 19,100 -2,400 Descending FlightAware ADS-B (CYYZ)
12:37AM 42.1228 -78.7944 353° North 380 437 17,500 -2,460 Descending FlightAware ADS-B (CYYZ)
12:37AM 42.1730 -78.8026 353° North 371 427 16,600 -2,040 Descending FlightAware ADS-B (CYYZ)
12:38AM 42.2249 -78.8111 353° North 361 415 15,500 -2,220 Descending FlightAware ADS-B (CYYZ)
12:38AM 42.2734 -78.8192 353° North 355 409 14,400 -2,220 Descending FlightAware ADS-B (CYYZ)
12:39AM 42.3223 -78.8273 353° North 350 403 13,300 -2,100 Descending FlightAware ADS-B (CYYZ)
12:39AM 42.3705 -78.8353 353° North 338 389 12,300 -2,100 Descending FlightAware ADS-B (CYYZ)
12:40AM 42.4162 -78.8429 353° North 335 386 11,200 -1,620 Descending FlightAware ADS-B (CYYZ)
12:40AM 42.4612 -78.8502 353° North 316 364 10,700 -540 Descending FlightAware ADS-B (CYYZ)
12:41AM 42.5026 -78.8572 353° North 315 362 10,700  Level FlightAware ADS-B (CYYZ)
12:41AM 42.5479 -78.8641 358° North 319 367 10,700  Level FlightAware ADS-B (CYYZ)
12:41AM 42.5629 -78.8616 13° North 327 376 10,700  Level FlightAware ADS-B (CYYZ)
12:42AM 42.6168 -78.8369 19° North 297 342 10,700 -540 Level FlightAware ADS-B (CYYZ)
12:43AM 42.6550 -78.8185 19° North 289 333 10,100 -1,380 Descending FlightAware ADS-B (CYYZ)
12:43AM 42.6737 -78.8097 19° North 286 329 9,700 -1,560 Descending FlightAware ADS-B (CYYZ)
12:43AM 42.6929 -78.8008 18° North 281 323 9,300 -1,800 Descending FlightAware ADS-B (CYYZ)
12:43AM 42.7109 -78.7929 17° North 277 319 8,800 -2,280 Descending FlightAware ADS-B (CYYZ)
12:44AM 42.7295 -78.7849 17° North 275 316 8,200 -2,400 Descending FlightAware ADS-B (CYYZ)
12:44AM 42.7474 -78.7774 17° North 273 314 7,600 -2,220 Descending FlightAware ADS-B (CYYZ)
12:44AM 42.7651 -78.7702 16° North 267 307 7,100 -2,040 Descending FlightAware ADS-B (CYYZ)
12:44AM 42.7822 -78.7634 16° North 262 302 6,600 -1,800 Descending FlightAware ADS-B (CYYZ)
12:45AM 42.7996 -78.7567 15° North 262 302 6,200 -1,620 Descending FlightAware ADS-B (CYYZ)
12:45AM 42.8174 -78.7500 15° North 259 298 5,800 -1,380 Descending FlightAware ADS-B (CYYZ)
12:45AM 42.8361 -78.7430 15° North 256 295 5,400 -1,140 Descending FlightAware ADS-B (CYYZ)
12:47AM 42.9425 -78.7064 13° North 221 254 3,700 -960 Descending FlightAware ADS-B (CYYZ)
12:47AM 42.9603 -78.7009 13° North 207 238 3,700 -360 Level FlightAware ADS-B (CYYZ)
12:48AM 43.0181 -78.7050 13° North 205 236 3,200 -600 Descending Cleveland Center
12:49AM 43.0736 -78.7225 347° North 199 229 2,500 -360 Descending Cleveland Center
12:50AM 43.0975 -78.7797 300° West 182 209 2,500 -300 Level Cleveland Center
12:51AM 43.1100 -78.8325 288° West 147 169 2,000 -540 Descending Cleveland Center
12:52AM 43.1094 -78.8811 269° West 143 165 1,500 -540 Descending Cleveland Center